Map

Track Data

SID SEASON NUMBER BASIN SUBBASIN NAME ISO_TIME NATURE LAT LON WMO_WIND WMO_PRES WMO_AGENCY TRACK_TYPE DIST2LAND LANDFALL IFLAG USA_AGENCY USA_ATCF_ID USA_LAT USA_LON USA_RECORD USA_STATUS USA_WIND USA_PRES USA_SSHS USA_R34_NE USA_R34_SE USA_R34_SW USA_R34_NW USA_R50_NE USA_R50_SE USA_R50_SW USA_R50_NW USA_R64_NE USA_R64_SE USA_R64_SW USA_R64_NW USA_POCI USA_ROCI USA_RMW USA_EYE TOKYO_LAT TOKYO_LON TOKYO_GRADE TOKYO_WIND TOKYO_PRES TOKYO_R50_DIR TOKYO_R50_LONG TOKYO_R50_SHORT TOKYO_R30_DIR TOKYO_R30_LONG TOKYO_R30_SHORT TOKYO_LAND CMA_LAT CMA_LON CMA_CAT CMA_WIND CMA_PRES HKO_LAT HKO_LON HKO_CAT HKO_WIND HKO_PRES NEWDELHI_LAT NEWDELHI_LON NEWDELHI_GRADE NEWDELHI_WIND NEWDELHI_PRES NEWDELHI_CI NEWDELHI_DP NEWDELHI_POCI REUNION_LAT REUNION_LON REUNION_TYPE REUNION_WIND REUNION_PRES REUNION_TNUM REUNION_CI REUNION_RMW REUNION_R34_NE REUNION_R34_SE REUNION_R34_SW REUNION_R34_NW REUNION_R50_NE REUNION_R50_SE REUNION_R50_SW REUNION_R50_NW REUNION_R64_NE REUNION_R64_SE REUNION_R64_SW REUNION_R64_NW BOM_LAT BOM_LON BOM_TYPE BOM_WIND BOM_PRES BOM_TNUM BOM_CI BOM_RMW BOM_R34_NE BOM_R34_SE BOM_R34_SW BOM_R34_NW BOM_R50_NE BOM_R50_SE BOM_R50_SW BOM_R50_NW BOM_R64_NE BOM_R64_SE BOM_R64_SW BOM_R64_NW BOM_ROCI BOM_POCI BOM_EYE BOM_POS_METHOD BOM_PRES_METHOD NADI_LAT NADI_LON NADI_CAT NADI_WIND NADI_PRES WELLINGTON_LAT WELLINGTON_LON WELLINGTON_WIND WELLINGTON_PRES DS824_LAT DS824_LON DS824_STAGE DS824_WIND DS824_PRES TD9636_LAT TD9636_LON TD9636_STAGE TD9636_WIND TD9636_PRES TD9635_LAT TD9635_LON TD9635_WIND TD9635_PRES TD9635_ROCI NEUMANN_LAT NEUMANN_LON NEUMANN_CLASS NEUMANN_WIND NEUMANN_PRES MLC_LAT MLC_LON MLC_CLASS MLC_WIND MLC_PRES USA_GUST BOM_GUST BOM_GUST_PER REUNION_GUST REUNION_GUST_PER USA_SEAHGT USA_SEARAD_NE USA_SEARAD_SE USA_SEARAD_SW USA_SEARAD_NW STORM_SPEED STORM_DIR
1994064S13099 1994 16 SI WA LITANNE 1994-03-05 00:00:00 TS -12.8000 98.6000 main 987 987 O___________O_ jtwc_sh SH201994 -12.8000 98.6000 25 -1 -12.8000 98.6000 TC 25 3 270
1994064S13099 1994 16 SI WA LITANNE 1994-03-05 03:00:00 TS -12.8000 98.4625 main 995 995 P___________P_ SH201994 -12.8000 98.4625 25 -1 -12.8000 98.4625 TC 25 3 270
1994064S13099 1994 16 SI WA LITANNE 1994-03-05 06:00:00 TS -12.8000 98.3000 main 1011 1011 O___________O_ jtwc_sh SH201994 -12.8000 98.3000 25 -1 -12.8000 98.3000 TC 25 4 270
1994064S13099 1994 16 SI WA LITANNE 1994-03-05 09:00:00 TS -12.8000 98.1000 main 1028 1028 P___________P_ SH201994 -12.8000 98.1000 25 -1 -12.8000 98.1000 TC 25 4 270
1994064S13099 1994 16 SI WA LITANNE 1994-03-05 12:00:00 TS -12.8000 97.9000 main 1044 1044 O___________O_ jtwc_sh SH201994 -12.8000 97.9000 25 -1 -12.8000 97.9000 TC 25 3 270
1994064S13099 1994 16 SI WA LITANNE 1994-03-05 15:00:00 TS -12.8000 97.7500 main 1053 1053 P___________P_ SH201994 -12.8000 97.7500 25 -1 -12.8000 97.7500 TC 25 3 270
1994064S13099 1994 16 SI WA LITANNE 1994-03-05 18:00:00 TS -12.8000 97.6000 main 1070 1070 O___________O_ jtwc_sh SH201994 -12.8000 97.6000 25 -1 -12.8000 97.6000 TC 25 3 271
1994064S13099 1994 16 SI WA LITANNE 1994-03-05 21:00:00 TS -12.7924 97.4300 main 1087 1087 P___________P_ SH201994 -12.7924 97.4300 25 -1 -12.7924 97.4300 TC 25 4 270
1994064S13099 1994 16 SI WA LITANNE 1994-03-06 00:00:00 TS -12.8000 97.2000 main 1104 1104 O___________O_ jtwc_sh SH201994 -12.8000 97.2000 25 -1 -12.8000 97.2000 TC 25 5 265
1994064S13099 1994 16 SI WA LITANNE 1994-03-06 03:00:00 TS -12.8424 96.8950 main 1131 1131 P___________P_ SH201994 -12.8424 96.8950 25 -1 -12.8424 96.8950 TC 25 7 262
1994064S13099 1994 16 SI WA LITANNE 1994-03-06 06:00:00 TS -12.9000 96.5000 main 1172 1172 O___________O_ jtwc_sh SH201994 -12.9000 96.5000 25 -1 -12.9000 96.5000 TC 25 9 262
1994064S13099 1994 16 SI WA LITANNE 1994-03-06 09:00:00 TS -12.9575 96.0300 main 1217 1217 P___________P_ SH201994 -12.9575 96.0300 25 -1 -12.9575 96.0300 TC 25 10 264
1994064S13099 1994 16 SI WA LITANNE 1994-03-06 12:00:00 TS -13.0000 95.5000 main 1252 1252 O___________O_ jtwc_sh SH201994 -13.0000 95.5000 25 -1 -13.0000 95.5000 TC 25 10 268
1994064S13099 1994 16 SI WA LITANNE 1994-03-06 15:00:00 TS -12.9999 94.9649 main 1288 1288 P___________P_ SH201994 -12.9999 94.9649 25 -1 -12.9999 94.9649 TC 25 11 270
1994064S13099 1994 16 SI WA LITANNE 1994-03-06 18:00:00 TS -13.0000 94.4000 main 1330 1330 O___________O_ jtwc_sh SH201994 -13.0000 94.4000 25 -1 -13.0000 94.4000 TC 25 11 268
1994064S13099 1994 16 SI WA LITANNE 1994-03-06 21:00:00 TS -13.0349 93.8075 main 1374 1374 P___________P_ SH201994 -13.0349 93.8075 25 -1 -13.0349 93.8075 TC 25 12 265
1994064S13099 1994 16 SI WA LITANNE 1994-03-07 00:00:00 TS -13.1000 93.2000 main 1423 1423 O___________O_ jtwc_sh SH201994 -13.1000 93.2000 25 -1 -13.1000 93.2000 TC 25 12 263
1994064S13099 1994 16 SI WA LITANNE 1994-03-07 03:00:00 TS -13.1849 92.5925 main 1463 1463 P___________P_ SH201994 -13.1849 92.5925 25 -1 -13.1849 92.5925 TC 25 12 260
1994064S13099 1994 16 SI WA LITANNE 1994-03-07 06:00:00 TS -13.3000 92.0000 main 1505 1505 O___________O_ jtwc_sh SH201994 -13.3000 92.0000 25 -1 -13.3000 92.0000 TC 25 11 257
1994064S13099 1994 16 SI WA LITANNE 1994-03-07 09:00:00 TS -13.4347 91.4574 main 1543 1543 P___________P_ SH201994 -13.4347 91.4574 27 -1 -13.4347 91.4574 TC 27 12 259
1994064S13099 1994 16 SI WA LITANNE 1994-03-07 12:00:00 TS -13.5222 90.8111 main 1594 1594 O____O______O_ jtwc_sh SH201994 -13.6000 90.9000 30 -1 -12.9000 90.1000 2 28 998 2.50000 2.50000 -13.6000 90.9000 TC 30 13 260
1994064S13099 1994 16 SI WA LITANNE 1994-03-07 15:00:00 TS -13.6720 90.1166 main 1656 1656 P____P______P_ SH201994 -13.7999 90.2725 32 -1 -13.1603 89.4928 2 28 998 -13.7999 90.2725 TC 32 14 257
1994064S13099 1994 16 SI MM LITANNE 1994-03-07 18:00:00 TS -13.8364 89.4091 28 998 reunion main 1711 1711 O____O______O_ jtwc_sh SH201994 -14.0000 89.6000 35 0 -13.4000 88.9000 2 28 998 2.50000 2.50000 -14.0000 89.6000 TC 35 14 257
1994064S13099 1994 16 SI MM LITANNE 1994-03-07 21:00:00 TS -13.9840 88.7166 main 1777 1777 P____P______P_ SH201994 -14.1724 88.9075 37 0 -13.6074 88.3349 2 29 996 -14.1724 88.9075 TC 37 13 257
1994064S13099 1994 16 SI MM LITANNE 1994-03-08 00:00:00 TS -14.1333 88.0667 30 995 reunion main 1827 1827 O____O______O_ jtwc_sh SH201994 -14.3000 88.2000 40 0 -13.8000 87.8000 2 30 995 2.50000 2.50000 -14.3000 88.2000 TC 40 13 258
1994064S13099 1994 16 SI MM LITANNE 1994-03-08 03:00:00 TS -14.2456 87.4332 main 1886 1886 P____P______P_ SH201994 -14.3648 87.4998 42 0 -14.0073 87.2999 2 32 993 -14.3648 87.4998 TC 42 12 261
1994064S13099 1994 16 SI MM LITANNE 1994-03-08 06:00:00 TS -14.3333 86.8000 35 992 reunion main 1939 1939 O____O______O_ jtwc_sh SH201994 -14.4000 86.8000 45 0 -14.2000 86.8000 3 35 992 3.00000 3.00000 -14.4000 86.8000 TC 45 13 262
1994064S13099 1994 16 SI MM LITANNE 1994-03-08 09:00:00 TS -14.4216 86.1450 main 2001 2001 P____P______P_ SH201994 -14.4499 86.0925 47 0 -14.3650 86.2500 3 37 990 -14.4499 86.0925 TC 47 13 262
1994064S13099 1994 16 SI MM LITANNE 1994-03-08 12:00:00 TS -14.5000 85.5000 40 988 reunion main 2055 2055 O____O______O_ jtwc_sh SH201994 -14.5000 85.4000 50 0 -14.5000 85.7000 3 40 988 3.00000 3.00000 -14.5000 85.4000 TC 50 12 263
1994064S13099 1994 16 SI MM LITANNE 1994-03-08 15:00:00 TS -14.5689 84.9024 main 2110 2110 P____P______P_ SH201994 -14.5498 84.7425 52 0 -14.6071 85.2223 3 42 986 -14.5498 84.7425 TC 52 12 263
1994064S13099 1994 16 SI MM LITANNE 1994-03-08 18:00:00 TS -14.6333 84.3000 45 984 reunion main 2159 2159 O____O______O_ jtwc_sh SH201994 -14.6000 84.1000 55 0 -14.7000 84.7000 3 45 984 3.50000 3.50000 -14.6000 84.1000 TC 55 12 264
1994064S13099 1994 16 SI MM LITANNE 1994-03-08 21:00:00 TS -14.6925 83.6283 main 2224 2224 P____P______P_ SH201994 -14.6349 83.4424 60 0 -14.8078 84.0001 3 47 981 -14.6349 83.4424 TC 60 13 264
1994064S13099 1994 16 SI MM LITANNE 1994-03-09 00:00:00 TS -14.7667 82.9667 50 978 reunion main 2281 2281 O____O______O_ jtwc_sh SH201994 -14.7000 82.8000 65 1 -14.9000 83.3000 3 50 978 4.00000 4.00000 -14.7000 82.8000 TC 65 12 261
1994064S13099 1994 16 SI MM LITANNE 1994-03-09 03:00:00 TS -14.8855 82.3901 main 2338 2336 P____P______P_ SH201994 -14.8498 82.1927 70 1 -14.9571 82.7849 3 55 974 -14.8498 82.1927 TC 70 11 258
1994064S13099 1994 16 SI MM LITANNE 1994-03-09 06:00:00 TS -15.0000 81.8333 60 970 reunion main 2345 2343 O____O______O_ jtwc_sh SH201994 -15.0000 81.6000 75 1 -15.0000 82.3000 3 60 970 4.50000 4.50000 -15.0000 81.6000 TC 75 11 261
1994064S13099 1994 16 SI MM LITANNE 1994-03-09 09:00:00 TS -15.0598 81.2482 main 2353 2352 P____P______P_ SH201994 -15.0648 80.9998 80 1 -15.0497 81.7449 3 62 965 -15.0648 80.9998 TC 80 12 265
1994064S13099 1994 16 SI MM LITANNE 1994-03-09 12:00:00 TS -15.1000 80.6333 65 960 reunion main 2352 2352 O____O______O_ jtwc_sh SH201994 -15.1000 80.4000 85 2 -15.1000 81.1000 4 65 960 5.00000 5.00000 -15.1000 80.4000 TC 85 12 265
1994064S13099 1994 16 SI MM LITANNE 1994-03-09 15:00:00 TS -15.1573 79.9917 main 2364 2345 P____P______P_ SH201994 -15.1571 79.8225 90 2 -15.1575 80.3300 4 67 957 -15.1571 79.8225 TC 90 13 266
1994064S13099 1994 16 SI MM LITANNE 1994-03-09 18:00:00 TS -15.2000 79.3000 70 955 reunion main 2345 2273 O____O______O_ jtwc_sh SH201994 -15.2000 79.2000 95 2 -15.2000 79.5000 4 70 955 5.00000 5.00000 -15.2000 79.2000 TC 95 14 268
1994064S13099 1994 16 SI MM LITANNE 1994-03-09 21:00:00 TS -15.2072 78.5632 main 2273 2192 P____P______P_ SH201994 -15.2072 78.4949 100 3 -15.2072 78.6999 4 70 955 -15.2072 78.4949 TC 100 15 270
1994064S13099 1994 16 SI MM LITANNE 1994-03-10 00:00:00 TS -15.2000 77.7667 70 955 reunion main 2192 2110 O____O______O_ jtwc_sh SH201994 -15.2000 77.7000 105 3 -15.2000 77.9000 4 70 955 5.00000 5.00000 -15.2000 77.7000 TC 105 16 270
1994064S13099 1994 16 SI MM LITANNE 1994-03-10 03:00:00 TS -15.2050 76.9026 main 2100 2019 P____P______P_ SH201994 -15.2076 76.8076 107 3 -15.1998 77.0925 4 72 952 -15.2076 76.8076 TC 107 17 270
1994064S13099 1994 16 SI MM LITANNE 1994-03-10 06:00:00 TS -15.2000 76.0333 75 950 reunion main 2008 1938 O____O______O_ jtwc_sh SH201994 -15.2000 75.9000 110 3 -15.2000 76.3000 4 75 950 5.00000 5.00000 -15.2000 75.9000 TC 110 16 271
1994064S13099 1994 16 SI MM LITANNE 1994-03-10 09:00:00 TS -15.1812 75.2426 main 1927 1861 P____P______P_ SH201994 -15.1646 75.0851 110 3 -15.2145 75.5577 4 77 947 -15.1646 75.0851 TC 110 15 273
1994064S13099 1994 16 SI MM LITANNE 1994-03-10 12:00:00 TS -15.1333 74.4667 80 945 reunion main 1861 1785 O____O______O_ jtwc_sh SH201994 -15.1000 74.3000 110 3 -15.2000 74.8000 4 80 945 5.50000 5.50000 -15.1000 74.3000 TC 110 15 275
1994064S13099 1994 16 SI MM LITANNE 1994-03-10 15:00:00 TS -15.0381 73.6499 main 1775 1709 P____P______P_ SH201994 -14.9998 73.4924 112 3 -15.1148 73.9649 4 82 942 -14.9998 73.4924 TC 112 16 277
1994064S13099 1994 16 SI MM LITANNE 1994-03-10 18:00:00 TS -14.9333 72.8333 85 940 reunion main 1699 1630 O____O______O_ jtwc_sh SH201994 -14.9000 72.7000 115 4 -15.0000 73.1000 4 85 940 5.50000 5.50000 -14.9000 72.7000 TC 115 16 277
1994064S13099 1994 16 SI MM LITANNE 1994-03-10 21:00:00 TS -14.8565 72.0351 main 1621 1557 P____P______P_ SH201994 -14.8423 71.9351 117 4 -14.8848 72.2349 4 90 932 -14.8423 71.9351 TC 120 15 275
1994064S13099 1994 16 SI MM LITANNE 1994-03-11 00:00:00 TS -14.8000 71.2667 95 925 reunion main 1557 1489 O____O______O_ jtwc_sh SH201994 -14.8000 71.2000 120 4 -14.8000 71.4000 4 95 925 6.00000 6.00000 -14.8000 71.2000 TC 125 925 14 274
1994064S13099 1994 16 SI MM LITANNE 1994-03-11 03:00:00 TS -14.7562 70.5550 main 1489 1427 P____P______P_ SH201994 -14.7421 70.5075 122 4 -14.7845 70.6502 4 95 925 -14.7421 70.5075 TC 125 14 273
1994064S13099 1994 16 SI MM LITANNE 1994-03-11 06:00:00 TS -14.7333 69.8333 95 925 reunion main 1417 1351 O____O______O_ jtwc_sh SH201994 -14.7000 69.8000 125 4 -14.8000 69.9000 4 95 925 6.00000 6.00000 -14.7000 69.8000 TC 125 15 271
1994064S13099 1994 16 SI MM LITANNE 1994-03-11 09:00:00 TS -14.7257 69.0267 main 1342 1267 P____P______P_ SH201994 -14.6924 69.0076 125 4 -14.7923 69.0649 4 92 927 -14.6924 69.0076 TC 125 16 270
1994064S13099 1994 16 SI MM LITANNE 1994-03-11 12:00:00 TS -14.7333 68.2000 90 930 reunion main 1267 1202 O____O______O_ jtwc_sh SH201994 -14.7000 68.2000 125 4 -14.8000 68.2000 4 90 930 5.50000 6.00000 -14.7000 68.2000 TC 125 16 270
1994064S13099 1994 16 SI MM LITANNE 1994-03-11 15:00:00 TS -14.7347 67.4141 main 1193 1123 P____P______P_ SH201994 -14.6846 67.4498 122 4 -14.8348 67.3425 4 90 930 -14.6846 67.4498 TC 122 15 269
1994064S13099 1994 16 SI MM LITANNE 1994-03-11 18:00:00 TS -14.7667 66.6333 90 930 reunion main 1114 1052 O____O______O_ jtwc_sh SH201994 -14.7000 66.7000 120 4 -14.9000 66.5000 4 90 930 5.50000 6.00000 -14.7000 66.7000 TC 120 15 266
1994064S13099 1994 16 SI MM LITANNE 1994-03-11 21:00:00 TS -14.8390 65.8307 main 1043 969 P____P______P_ SH201994 -14.7698 65.9074 117 4 -14.9773 65.6774 4 87 935 -14.7698 65.9074 TC 117 16 263
1994064S13099 1994 16 SI MM LITANNE 1994-03-12 00:00:00 TS -14.9667 65.0333 85 940 reunion main 961 895 O____O______O_ jtwc_sh SH201994 -14.9000 65.1000 115 4 -15.1000 64.9000 4 85 940 5.50000 5.50000 -14.9000 65.1000 TC 115 16 258
1994064S13099 1994 16 SI MM LITANNE 1994-03-12 03:00:00 TS -15.1540 64.2517 main 888 808 P____P______P_ SH201994 -15.0924 64.2851 115 4 -15.2771 64.1849 4 85 940 -15.0924 64.2851 TC 115 15 255
1994064S13099 1994 16 SI MM LITANNE 1994-03-12 06:00:00 TS -15.3667 63.5000 85 940 reunion main 808 745 O____O______O_ jtwc_sh SH201994 -15.3000 63.5000 115 4 -15.5000 63.5000 4 85 940 5.50000 5.50000 -15.3000 63.5000 TC 115 15 255
1994064S13099 1994 16 SI MM LITANNE 1994-03-12 09:00:00 TS -15.5421 62.7997 main 745 677 P____P______P_ SH201994 -15.4346 62.7920 117 4 -15.7571 62.8150 4 85 940 -15.4346 62.7920 TC 117 14 255
1994064S13099 1994 16 SI MM LITANNE 1994-03-12 12:00:00 TS -15.7333 62.1000 85 940 reunion main 677 602 O____O______O_ jtwc_sh SH201994 -15.6000 62.1000 120 4 -16.0000 62.1000 4 85 940 5.50000 5.50000 -15.6000 62.1000 TC 120 15 253
1994064S13099 1994 16 SI MM LITANNE 1994-03-12 15:00:00 TS -15.9783 61.3309 main 596 533 P____P______P_ SH201994 -15.8850 61.3427 122 4 -16.1649 61.3073 4 85 940 -15.8850 61.3427 TC 122 16 251
1994064S13099 1994 16 SI MM LITANNE 1994-03-12 18:00:00 TS -16.2333 60.5667 85 940 reunion main 533 474 O____O______O_ jtwc_sh SH201994 -16.2000 60.6000 125 4 -16.3000 60.5000 4 85 940 5.50000 5.50000 -16.2000 60.6000 TC 125 15 252
1994064S13099 1994 16 SI MM LITANNE 1994-03-12 21:00:00 TS -16.4498 59.8581 main 474 411 P____P______P_ SH201994 -16.4572 59.9347 122 4 -16.4350 59.7049 4 85 940 -16.4572 59.9347 TC 122 14 252
1994064S13099 1994 16 SI MM LITANNE 1994-03-13 00:00:00 TS -16.6667 59.2000 85 940 reunion main 411 370 O____O______O_ jtwc_sh SH201994 -16.7000 59.3000 120 4 -16.6000 59.0000 4 85 940 5.00000 5.50000 -16.7000 59.3000 TC 120 13 249
1994064S13099 1994 16 SI MM LITANNE 1994-03-13 03:00:00 TS -16.9141 58.5625 main 370 325 P____P______P_ SH201994 -16.9575 58.6200 120 4 -16.8272 58.4474 4 85 940 -16.9575 58.6200 TC 120 13 246
1994064S13099 1994 16 SI MM LITANNE 1994-03-13 06:00:00 TS -17.1667 58.0000 85 940 reunion main 325 302 O____O______O_ jtwc_sh SH201994 -17.2000 58.0000 120 4 -17.1000 58.0000 4 85 940 5.50000 5.50000 -17.2000 58.0000 TC 120 11 243
1994064S13099 1994 16 SI MM LITANNE 1994-03-13 09:00:00 TS -17.4147 57.5465 main 302 280 P____P______P_ SH201994 -17.4147 57.5198 120 4 -17.4147 57.6000 4 87 935 -17.4147 57.5198 TC 120 10 241
1994064S13099 1994 16 SI MM LITANNE 1994-03-13 12:00:00 TS -17.6333 57.1333 90 930 reunion main 282 267 O____O______O_ jtwc_sh SH201994 -17.6000 57.1000 120 4 -17.7000 57.2000 4 90 930 6.00000 6.00000 -17.6000 57.1000 TC 120 9 245
1994064S13099 1994 16 SI MM LITANNE 1994-03-13 15:00:00 TS -17.8007 56.6740 main 270 267 P____P______P_ SH201994 -17.7573 56.6573 125 4 -17.8875 56.7074 4 92 927 -17.7573 56.6573 TC 125 9 251
1994064S13099 1994 16 SI MM LITANNE 1994-03-13 18:00:00 TS -17.9333 56.2000 95 925 reunion main 281 277 O____O______O_ jtwc_sh SH201994 -17.9000 56.2000 130 4 -18.0000 56.2000 4 95 925 6.00000 6.00000 -17.9000 56.2000 TC 130 9 254
1994064S13099 1994 16 SI MM LITANNE 1994-03-13 21:00:00 TS -18.0599 55.7216 main 292 292 P____P______P_ SH201994 -18.0574 55.7075 130 4 -18.0648 55.7498 4 97 920 -18.0574 55.7075 TC 130 9 256
1994064S13099 1994 16 SI MM LITANNE 1994-03-14 00:00:00 TS -18.1667 55.2333 100 915 reunion main 313 306 O____O______O_ jtwc_sh SH201994 -18.2000 55.2000 130 4 -18.1000 55.3000 4 100 915 6.50000 6.50000 -18.2000 55.2000 TC 130 10 258
1994064S13099 1994 16 SI MM LITANNE 1994-03-14 03:00:00 TS -18.2574 54.7383 main 308 308 P____P______P_ SH201994 -18.3149 54.6999 130 4 -18.1424 54.8149 4 100 915 -18.3149 54.6999 TC 130 10 260
1994064S13099 1994 16 SI MM LITANNE 1994-03-14 06:00:00 TS -18.3333 54.2333 100 915 reunion main 323 316 O____O______O_ jtwc_sh SH201994 -18.4000 54.2000 130 4 -18.2000 54.3000 4 100 915 6.50000 6.50000 -18.4000 54.2000 TC 130 10 261
1994064S13099 1994 16 SI MM LITANNE 1994-03-14 09:00:00 TS -18.4125 53.7067 main 335 335 P____P______P_ SH201994 -18.4649 53.6925 127 4 -18.3076 53.7352 4 102 912 -18.4649 53.6925 TC 127 10 262
1994064S13099 1994 16 SI MM LITANNE 1994-03-14 12:00:00 TS -18.4667 53.2000 105 910 reunion main 355 355 O____O______O_ jtwc_sh SH201994 -18.5000 53.2000 125 4 -18.4000 53.2000 4 105 910 6.50000 6.50000 -18.5000 53.2000 TC 125 9 266
1994064S13099 1994 16 SI MM LITANNE 1994-03-14 15:00:00 TS -18.4740 52.7491 main 349 318 P____P______P_ SH201994 -18.5074 52.7349 122 4 -18.4073 52.7773 4 105 910 -18.5074 52.7349 TC 122 8 270
1994064S13099 1994 16 SI MM LITANNE 1994-03-14 18:00:00 TS -18.4667 52.3333 105 910 reunion main 307 276 O____O______O_ jtwc_sh SH201994 -18.5000 52.3000 120 4 -18.4000 52.4000 4 105 910 6.50000 6.50000 -18.5000 52.3000 TC 120 8 270
1994064S13099 1994 16 SI MM LITANNE 1994-03-14 21:00:00 TS -18.4807 51.9308 main 266 234 P____P______P_ SH201994 -18.4999 51.8925 120 4 -18.4424 52.0075 4 105 910 -18.4999 51.8925 TC 120 8 267
1994064S13099 1994 16 SI MM LITANNE 1994-03-15 00:00:00 TS -18.5000 51.5333 105 910 reunion main 224 182 O____O______O_ jtwc_sh SH201994 -18.5000 51.5000 120 4 -18.5000 51.6000 4 105 910 6.00000 6.50000 -18.5000 51.5000 TC 120 8 267
1994064S13099 1994 16 SI MM LITANNE 1994-03-15 03:00:00 TS -18.5166 51.1192 main 182 141 P____P______P_ SH201994 -18.4999 51.1000 120 4 -18.5499 51.1575 4 102 912 -18.4999 51.1000 TC 120 8 268
1994064S13099 1994 16 SI MM LITANNE 1994-03-15 06:00:00 TS -18.5333 50.7000 100 915 reunion main 141 104 O____O______O_ jtwc_sh SH201994 -18.5000 50.7000 120 4 -18.6000 50.7000 4 100 915 5.50000 6.50000 -18.5000 50.7000 TC 120 8 267
1994064S13099 1994 16 SI MM LITANNE 1994-03-15 09:00:00 TS -18.5575 50.2734 main 104 67 P____P______P_ SH201994 -18.5075 50.2926 117 4 -18.6575 50.2350 4 95 922 -18.5075 50.2926 TC 117 8 268
1994064S13099 1994 16 SI MM LITANNE 1994-03-15 12:00:00 TS -18.5667 49.8667 90 930 reunion main 67 23 O____O______O_ jtwc_sh SH201994 -18.5000 49.9000 115 4 -18.7000 49.8000 4 90 930 5.50000 6.00000 -18.5000 49.9000 TC 115 7 273
1994064S13099 1994 16 SI MM LITANNE 1994-03-15 15:00:00 TS -18.5208 49.4865 main 23 0 P____P______P_ SH201994 -18.4350 49.5199 112 3 -18.6924 49.4199 4 -18.4350 49.5199 TC 110 7 276
1994064S13099 1994 16 SI MM LITANNE 1994-03-15 18:00:00 TS -18.5000 49.1667 reunion main 0 0 O____O______O_ jtwc_sh SH201994 -18.4000 49.2000 110 3 -18.7000 49.1000 8 9.90000 -18.4000 49.2000 TC 105 5 265
1994064S13099 1994 16 SI MM LITANNE 1994-03-15 21:00:00 TS -18.5649 48.9250 main 0 0 P____P______P_ SH201994 -18.4549 48.9775 97 3 -18.7849 48.8201 8 -18.4549 48.9775 TC 77 5 244
1994064S13099 1994 16 SI MM LITANNE 1994-03-16 00:00:00 TS -18.7000 48.7333 reunion main 0 0 O____O______O_ jtwc_sh SH201994 -18.6000 48.8000 85 2 -18.9000 48.6000 8 9.90000 -18.6000 48.8000 TC 50 5 231
1994064S13099 1994 16 SI MM LITANNE 1994-03-16 03:00:00 TS -18.8700 48.5325 main 0 0 P____P______P_ SH201994 -18.8125 48.5925 77 1 -18.9850 48.4125 8 -18.8125 48.5925 TC 45 5 221
1994064S13099 1994 16 SI MM LITANNE 1994-03-16 06:00:00 TS -19.1000 48.3667 reunion main 0 0 O____O______O_ jtwc_sh SH201994 -19.1000 48.4000 70 1 -19.1000 48.3000 8 9.90000 -19.1000 48.4000 TC 40 6 208
1994064S13099 1994 16 SI MM LITANNE 1994-03-16 09:00:00 TS -19.3825 48.2467 main 0 0 P____P______P_ SH201994 -19.4425 48.2276 62 0 -19.2625 48.2849 8 -19.4425 48.2276 TC 37 6 198
1994064S13099 1994 16 SI MM LITANNE 1994-03-16 12:00:00 TS -19.7000 48.1667 reunion main 0 0 O____O______O_ jtwc_sh SH201994 -19.8000 48.1000 55 0 -19.5000 48.3000 8 9.90000 -19.8000 48.1000 TC 35 6 193
1994064S13099 1994 16 SI MM LITANNE 1994-03-16 15:00:00 TS -20.0017 48.1041 main 0 0 P____P______P_ SH201994 -20.1000 48.0274 50 0 -19.8050 48.2575 8 -20.1000 48.0274 TC 32 6 189
1994064S13099 1994 16 SI MM LITANNE 1994-03-16 18:00:00 TS -20.3333 48.0667 reunion main 0 0 O____O______O_ jtwc_sh SH201994 -20.4000 48.0000 45 0 -20.2000 48.2000 8 9.90000 -20.4000 48.0000 TC 30 7 184
1994064S13099 1994 16 SI MM LITANNE 1994-03-16 21:00:00 TS -20.7108 48.0475 main 0 0 P____P______P_ SH201994 -20.7275 47.9999 40 0 -20.6775 48.1426 8 -20.7275 47.9999 TC 30 8 183
1994064S13099 1994 16 SI MM LITANNE 1994-03-17 00:00:00 TS -21.1333 48.0333 reunion main 0 0 O____O______O_ jtwc_sh SH201994 -21.1000 48.0000 35 0 -21.2000 48.1000 8 9.90000 -21.1000 48.0000 TC 30 9 184
1994064S13099 1994 16 SI MM LITANNE 1994-03-17 03:00:00 TS -21.5625 47.9803 main 0 0 P____P______P_ SH201994 -21.5125 47.9279 35 0 -21.6625 48.0850 8 -21.5125 47.9279 TC 27 9 183
1994064S13099 1994 16 SI MM LITANNE 1994-03-17 06:00:00 TS -22.0667 47.9667 reunion main 0 0 O____O______O_ jtwc_sh SH201994 -22.0000 47.9000 35 0 -22.2000 48.1000 8 9.90000 -22.0000 47.9000 TC 25 11 179
1994064S13099 1994 16 SI MM LITANNE 1994-03-17 09:00:00 TS -22.6791 48.0287 main 20 20 P____P______P_ SH201994 -22.5625 47.9977 32 -1 -22.9124 48.0909 8 -22.5625 47.9977 TC 27 14 171
1994064S13099 1994 16 SI MM LITANNE 1994-03-17 12:00:00 TS -23.4000 48.2000 30 997 reunion main 51 51 O____O______O_ jtwc_sh SH201994 -23.2000 48.2000 30 -1 -23.7000 48.2000 2 30 997 2.50000 2.50000 -23.2000 48.2000 TC 30 15 164
1994064S13099 1994 16 SI MM LITANNE 1994-03-17 15:00:00 TS -24.1575 48.4986 main 103 103 P____P______P_ SH201994 -23.8877 48.4792 27 -1 -24.4274 48.5180 2 30 997 -23.8877 48.4792 TC 27 17 157
1994064S13099 1994 16 SI MM LITANNE 1994-03-17 18:00:00 TS -25.0000 48.9333 30 997 reunion main 170 170 O____O______O_ jtwc_sh SH201994 -24.6000 48.8000 25 -1 -25.2000 49.0000 2 30 997 2.50000 2.50000 -24.6000 48.8000 TC 25 22 154
1994064S13099 1994 16 SI MM LITANNE 1994-03-17 21:00:00 TS -26.0925 49.5625 main 279 279 _____P________ SH201994 -1 -26.0925 49.5625 2 29 997 TC 23 150
1994064S13099 1994 16 SI MM LITANNE 1994-03-18 00:00:00 TS -27.0000 50.2000 28 998 reunion main 381 381 _____O________ -1 -27.0000 50.2000 2 28 998 2.00000 2.50000 21 147
1994064S13099 1994 16 SI MM LITANNE 1994-03-18 03:00:00 TS -27.8223 50.8434 main 483 483 _____P________ -1 -27.8223 50.8434 2 28 998 20 144
1994064S13099 1994 16 SI MM LITANNE 1994-03-18 06:00:00 TS -28.6000 51.5000 28 998 reunion main 592 592 _____O________ -1 -28.6000 51.5000 2 28 998 2.00000 2.50000 19 144
1994064S13099 1994 16 SI MM LITANNE 1994-03-18 09:00:00 TS -29.3493 52.1293 main 688 688 _____P________ -1 -29.3493 52.1293 2 26 999 19 143
1994064S13099 1994 16 SI MM LITANNE 1994-03-18 12:00:00 TS -30.1000 52.8000 25 1000 reunion main 798 798 _____O________ -1 -30.1000 52.8000 2 25 1000 2.00000 2.00000 20 142
1994064S13099 1994 16 SI MM LITANNE 1994-03-18 15:00:00 TS -30.8991 53.5414 main 908 908 _____P________ -1 -30.8991 53.5414 2 21 139
1994064S13099 1994 16 SI MM LITANNE 1994-03-18 18:00:00 ET -31.7000 54.4000 reunion main 1031 1031 _____O________ -1 -31.7000 54.4000 5 9.90000 22 135
1994064S13099 1994 16 SI MM LITANNE 1994-03-18 21:00:00 ET -32.4721 55.3984 main 1161 1161 _____P________ -1 -32.4721 55.3984 5 23 130
1994064S13099 1994 16 SI MM LITANNE 1994-03-19 00:00:00 ET -33.2000 56.5000 reunion main 1289 1289 _____O________ -1 -33.2000 56.5000 5 9.90000 23 127
1994064S13099 1994 16 SI MM LITANNE 1994-03-19 03:00:00 ET -33.8720 57.6440 main 1409 1409 _____P________ -1 -33.8720 57.6440 5 23 124
1994064S13099 1994 16 SI MM LITANNE 1994-03-19 06:00:00 ET -34.5000 58.8000 reunion main 1495 1495 _____O________ -1 -34.5000 58.8000 5 9.90000 22 123
1994064S13099 1994 16 SI MM LITANNE 1994-03-19 09:00:00 ET -35.1066 59.9120 main 1585 1585 _____P________ -1 -35.1066 59.9120 5 22 124
1994064S13099 1994 16 SI MM LITANNE 1994-03-19 12:00:00 ET -35.7000 61.0000 reunion main 1592 _____O________ -1 -35.7000 61.0000 5 9.90000 21 124

About IBTrACS Database

This database is a web-friendly format of International Best Track Archive for Climate Stewardship (IBTrACS), a global best track data archive curated by NOAA dating back to 1842.

Updated: 2021-12-06